Map

Track Data

SID SEASON NUMBER BASIN SUBBASIN NAME ISO_TIME NATURE LAT LON WMO_WIND WMO_PRES WMO_AGENCY TRACK_TYPE DIST2LAND LANDFALL IFLAG USA_AGENCY USA_ATCF_ID USA_LAT USA_LON USA_RECORD USA_STATUS USA_WIND USA_PRES USA_SSHS USA_R34_NE USA_R34_SE USA_R34_SW USA_R34_NW USA_R50_NE USA_R50_SE USA_R50_SW USA_R50_NW USA_R64_NE USA_R64_SE USA_R64_SW USA_R64_NW USA_POCI USA_ROCI USA_RMW USA_EYE TOKYO_LAT TOKYO_LON TOKYO_GRADE TOKYO_WIND TOKYO_PRES TOKYO_R50_DIR TOKYO_R50_LONG TOKYO_R50_SHORT TOKYO_R30_DIR TOKYO_R30_LONG TOKYO_R30_SHORT TOKYO_LAND CMA_LAT CMA_LON CMA_CAT CMA_WIND CMA_PRES HKO_LAT HKO_LON HKO_CAT HKO_WIND HKO_PRES NEWDELHI_LAT NEWDELHI_LON NEWDELHI_GRADE NEWDELHI_WIND NEWDELHI_PRES NEWDELHI_CI NEWDELHI_DP NEWDELHI_POCI REUNION_LAT REUNION_LON REUNION_TYPE REUNION_WIND REUNION_PRES REUNION_TNUM REUNION_CI REUNION_RMW REUNION_R34_NE REUNION_R34_SE REUNION_R34_SW REUNION_R34_NW REUNION_R50_NE REUNION_R50_SE REUNION_R50_SW REUNION_R50_NW REUNION_R64_NE REUNION_R64_SE REUNION_R64_SW REUNION_R64_NW BOM_LAT BOM_LON BOM_TYPE BOM_WIND BOM_PRES BOM_TNUM BOM_CI BOM_RMW BOM_R34_NE BOM_R34_SE BOM_R34_SW BOM_R34_NW BOM_R50_NE BOM_R50_SE BOM_R50_SW BOM_R50_NW BOM_R64_NE BOM_R64_SE BOM_R64_SW BOM_R64_NW BOM_ROCI BOM_POCI BOM_EYE BOM_POS_METHOD BOM_PRES_METHOD NADI_LAT NADI_LON NADI_CAT NADI_WIND NADI_PRES WELLINGTON_LAT WELLINGTON_LON WELLINGTON_WIND WELLINGTON_PRES DS824_LAT DS824_LON DS824_STAGE DS824_WIND DS824_PRES TD9636_LAT TD9636_LON TD9636_STAGE TD9636_WIND TD9636_PRES TD9635_LAT TD9635_LON TD9635_WIND TD9635_PRES TD9635_ROCI NEUMANN_LAT NEUMANN_LON NEUMANN_CLASS NEUMANN_WIND NEUMANN_PRES MLC_LAT MLC_LON MLC_CLASS MLC_WIND MLC_PRES USA_GUST BOM_GUST BOM_GUST_PER REUNION_GUST REUNION_GUST_PER USA_SEAHGT USA_SEARAD_NE USA_SEARAD_SE USA_SEARAD_SW USA_SEARAD_NW STORM_SPEED STORM_DIR
1962295N08085 1962 96 NI BB NOT_NAMED 1962-10-22 06:00:00 TS 8.10000 84.9000 main 346 337 O________O____ jtwc_io IO111962 8.10000 84.9000 -1 8.10000 84.9000 TC 3 324
1962295N08085 1962 96 NI BB NOT_NAMED 1962-10-22 09:00:00 TS 8.24000 84.8025 main 337 329 P________P____ IO111962 8.24000 84.8025 -1 8.24000 84.8025 TC 4 327
1962295N08085 1962 96 NI BB NOT_NAMED 1962-10-22 12:00:00 TS 8.40000 84.7000 main 331 324 O________O____ jtwc_io IO111962 8.40000 84.7000 -1 8.40000 84.7000 TC 25 4 330
1962295N08085 1962 96 NI BB NOT_NAMED 1962-10-22 15:00:00 TS 8.59334 84.5933 main 328 321 P________PO___ IO111962 8.59250 84.5925 -1 8.59250 84.5925 TC 25 8.60000 84.6000 1 4 334
1962295N08085 1962 96 NI BB NOT_NAMED 1962-10-22 18:00:00 TS 8.78158 84.5094 main 326 326 O________OP___ jtwc_io IO111962 8.80000 84.5000 -1 8.80000 84.5000 TC 25 8.70789 84.5468 1 4 338
1962295N08085 1962 96 NI BB NOT_NAMED 1962-10-22 21:00:00 TS 8.94071 84.4513 main 331 326 P________PP___ IO111962 8.97000 84.4350 -1 8.97000 84.4350 TC 25 8.86260 84.4949 1 4 346
1962295N08085 1962 96 NI BB NOT_NAMED 1962-10-23 00:00:00 TS 9.17033 84.4152 main 336 336 O________OP___ jtwc_io IO111962 9.20000 84.4000 -1 9.20000 84.4000 TC 25 9.11100 84.4455 1 6 354
1962295N08085 1962 96 NI BB NOT_NAMED 1962-10-23 03:00:00 TS 9.51668 84.4000 main 350 350 P________PO___ IO111962 9.52502 84.3999 -1 9.52502 84.3999 TC 25 9.50000 84.4000 1 9 358
1962295N08085 1962 96 NI BB NOT_NAMED 1962-10-23 06:00:00 TS 10.0182 84.3866 main 375 375 O________OP___ jtwc_io IO111962 10.0000 84.4000 -1 10.0000 84.4000 TC 25 10.0547 84.3598 1 12 357
1962295N08085 1962 96 NI BB NOT_NAMED 1962-10-23 09:00:00 TS 10.6942 84.3426 main 407 407 P________PP___ IO111962 10.6850 84.3501 -1 10.6850 84.3501 TC 25 10.7125 84.3277 1 14 357
1962295N08085 1962 96 NI BB NOT_NAMED 1962-10-23 12:00:00 TS 11.3964 84.3022 main 449 449 O________OP___ jtwc_io IO111962 11.4000 84.3000 -1 11.4000 84.3000 TC 25 11.3891 84.3067 1 13 357
1962295N08085 1962 96 NI BB NOT_NAMED 1962-10-23 15:00:00 TS 11.9633 84.2900 main 449 445 P________PO___ IO111962 11.9450 84.2850 -1 11.9450 84.2850 TC 25 12.0000 84.3000 1 10 0
1962295N08085 1962 96 NI BB NOT_NAMED 1962-10-23 18:00:00 TS 12.4205 84.3048 main 445 437 O________OP___ jtwc_io IO111962 12.4000 84.3000 -1 12.4000 84.3000 TC 25 12.4615 84.3145 1 9 4
1962295N08085 1962 96 NI BB NOT_NAMED 1962-10-23 21:00:00 TS 12.8441 84.3474 main 437 437 P________PP___ IO111962 12.8450 84.3499 -1 12.8450 84.3499 TC 25 12.8424 84.3423 1 8 6
1962295N08085 1962 96 NI BB NOT_NAMED 1962-10-24 00:00:00 TS 13.1840 84.3913 main 442 423 O________OP___ jtwc_io IO111962 13.2000 84.4000 -1 13.2000 84.4000 TC 25 13.1521 84.3739 1 6 6
1962295N08085 1962 96 NI BB NOT_NAMED 1962-10-24 03:00:00 TS 13.4250 84.4050 main 423 404 P________PO___ IO111962 13.4375 84.4075 -1 13.4375 84.4075 TC 25 13.4000 84.4000 1 4 3
1962295N08085 1962 96 NI BB NOT_NAMED 1962-10-24 06:00:00 TS 13.6038 84.4024 main 404 386 O________OP___ jtwc_io IO111962 13.6000 84.4000 -1 13.6000 84.4000 TC 25 13.6115 84.4072 1 3 0
1962295N08085 1962 96 NI BB NOT_NAMED 1962-10-24 09:00:00 TS 13.7658 84.4025 main 386 377 P________PP___ IO111962 13.7650 84.4000 -1 13.7650 84.4000 TC 25 13.7675 84.4076 1 3 356
1962295N08085 1962 96 NI BB NOT_NAMED 1962-10-24 12:00:00 TS 13.8966 84.4014 main 377 368 O________OP___ jtwc_io IO111962 13.9000 84.4000 -1 13.9000 84.4000 TC 25 13.8897 84.4041 1 2 0
1962295N08085 1962 96 NI BB NOT_NAMED 1962-10-24 15:00:00 TS 14.0000 84.4000 main 368 359 P________PO___ IO111962 14.0000 84.4000 -1 14.0000 84.4000 TC 25 14.0000 84.4000 1 2 5
1962295N08085 1962 96 NI BB NOT_NAMED 1962-10-24 18:00:00 TS 14.1161 84.4041 main 359 342 O________OP___ jtwc_io IO111962 14.1000 84.4000 -1 14.1000 84.4000 TC 25 14.1484 84.4122 1 3 5
1962295N08085 1962 96 NI BB NOT_NAMED 1962-10-24 21:00:00 TS 14.2675 84.4125 main 342 333 P________PP___ IO111962 14.2575 84.4075 -1 14.2575 84.4075 TC 25 14.2875 84.4225 1 3 0
1962295N08085 1962 96 NI BB NOT_NAMED 1962-10-25 00:00:00 TS 14.4026 84.4072 main 333 325 O________OP___ jtwc_io IO111962 14.4000 84.4000 -1 14.4000 84.4000 TC 25 14.4078 84.4215 1 2 349
1962295N08085 1962 96 NI BB NOT_NAMED 1962-10-25 03:00:00 TS 14.4767 84.3717 main 325 318 P________PO___ IO111962 14.4650 84.3575 -1 14.4650 84.3575 TC 25 14.5000 84.4000 1 1 324
1962295N08085 1962 96 NI BB NOT_NAMED 1962-10-25 06:00:00 TS 14.5179 84.3155 main 318 309 O________OP___ jtwc_io IO111962 14.5000 84.3000 -1 14.5000 84.3000 TC 25 14.5538 84.3466 1 1 310
1962295N08085 1962 96 NI BB NOT_NAMED 1962-10-25 09:00:00 TS 14.5650 84.2625 main 309 302 P________PP___ IO111962 14.5575 84.2575 -1 14.5575 84.2575 TC 25 14.5800 84.2725 1 1 304
1962295N08085 1962 96 NI BB NOT_NAMED 1962-10-25 12:00:00 TS 14.5971 84.1957 main 302 295 O________OP___ jtwc_io IO111962 14.6000 84.2000 -1 14.6000 84.2000 TC 25 14.5913 84.1872 1 2 282
1962295N08085 1962 96 NI BB NOT_NAMED 1962-10-25 15:00:00 TS 14.6000 84.1000 main 295 288 P________PO___ IO111962 14.6000 84.1000 -1 14.6000 84.1000 TC 25 14.6000 84.1000 1 1 273
1962295N08085 1962 96 NI BB NOT_NAMED 1962-10-25 18:00:00 TS 14.6054 84.0421 main 288 288 O________OP___ jtwc_io IO111962 14.6000 84.0000 -1 14.6000 84.0000 TC 25 14.6161 84.1263 1 1 300
1962295N08085 1962 96 NI BB NOT_NAMED 1962-10-25 21:00:00 TS 14.6445 84.0223 main 288 279 P________PP___ IO111962 14.6500 83.9650 -1 14.6500 83.9650 TC 25 14.6336 84.1370 1 1 313
1962295N08085 1962 96 NI BB NOT_NAMED 1962-10-26 00:00:00 TS 14.6864 83.9514 main 279 266 O________OP___ jtwc_io IO111962 14.7000 83.9000 -1 14.7000 83.9000 TC 25 14.6593 84.0543 1 2 283
1962295N08085 1962 96 NI BB NOT_NAMED 1962-10-26 03:00:00 TS 14.6947 83.8032 main 266 248 P________PO___ IO111962 14.6921 83.8048 -1 14.6921 83.8048 TC 25 14.7000 83.8000 1 5 274
1962295N08085 1962 96 NI BB NOT_NAMED 1962-10-26 06:00:00 TS 14.7239 83.4277 main 243 203 O________OP___ jtwc_io IO111962 14.7000 83.5000 -1 14.7000 83.5000 TC 25 14.7597 83.3193 1 10 276
1962295N08085 1962 96 NI BB NOT_NAMED 1962-10-26 09:00:00 TS 14.8022 82.7663 main 203 147 P________PP___ IO111962 14.7785 82.8528 -1 14.7785 82.8528 TC 25 14.8339 82.6509 1 15 277
1962295N08085 1962 96 NI BB NOT_NAMED 1962-10-26 12:00:00 TS 14.9080 81.9285 main 139 81 O________OP___ jtwc_io IO111962 14.9000 82.0000 -1 14.9000 82.0000 TC 25 14.9160 81.8569 1 17 277
1962295N08085 1962 96 NI BB NOT_NAMED 1962-10-26 15:00:00 NR 15.0000 81.0000 main 79 __________O___ IO111962 -1 TC 15.0000 81.0000 1 18 276

About IBTrACS Database

This database is a web-friendly format of International Best Track Archive for Climate Stewardship (IBTrACS), a global best track data archive curated by NOAA dating back to 1842.

Updated: 2021-11-26